Time;durP1;ratioP1;P1;durP2;ratioP2;P2;SDS_P1;SDS_P2;PMS_P1;PMS_P2;Temp;Humidity;BMP_temperature;BMP_pressure;BME280_temperature;BME280_humidity;BME280_pressure;Samples;Min_cycle;Max_cycle;Signal;HPM_P1;HPM_P2
2023/09/18 00:00:23;;;;;;;;;;;16.60;80.50;;;;;;5048192;28;19951;-74
2023/09/18 00:02:49;;;;;;;;;;;16.60;80.50;;;;;;5030135;28;19917;-74
2023/09/18 00:05:15;;;;;;;;;;;16.60;80.50;;;;;;5030199;28;19909;-75
2023/09/18 00:07:44;;;;;;;;;;;16.60;81.00;;;;;;5030132;28;20034;-75
2023/09/18 00:10:13;;;;;;;;;;;16.60;80.60;;;;;;5047812;28;20429;-74
2023/09/18 00:12:40;;;;;;;;;;;16.50;80.50;;;;;;5047892;28;19913;-74
2023/09/18 00:15:08;;;;;;;;;;;16.50;80.50;;;;;;5047903;28;19948;-74
2023/09/18 00:17:34;;;;;;;;;;;16.50;80.50;;;;;;5047943;28;19921;-74
2023/09/18 00:20:00;;;;;;;;;;;16.50;80.50;;;;;;5029981;28;19979;-74
2023/09/18 00:22:25;;;;;;;;;;;16.50;80.60;;;;;;5029718;28;19925;-74
2023/09/18 00:24:51;;;;;;;;;;;16.50;80.60;;;;;;5047784;28;19966;-75
2023/09/18 00:27:17;;;;;;;;;;;16.50;80.60;;;;;;5047874;28;19948;-74
2023/09/18 00:29:42;;;;;;;;;;;16.50;80.60;;;;;;5030175;28;20250;-74
2023/09/18 00:32:08;;;;;;;;;;;16.50;80.60;;;;;;5029827;28;20319;-74
2023/09/18 00:34:34;;;;;;;;;;;16.40;80.50;;;;;;5048093;28;19909;-74
2023/09/18 00:36:59;;;;;;;;;;;16.40;80.50;;;;;;5047646;28;19913;-74
2023/09/18 00:39:28;;;;;;;;;;;16.40;80.50;;;;;;5031309;28;19913;-77
2023/09/18 00:41:54;;;;;;;;;;;16.40;80.60;;;;;;5051642;28;19962;-77
2023/09/18 00:44:22;;;;;;;;;;;16.40;80.50;;;;;;5051925;28;20123;-76
2023/09/18 00:46:48;;;;;;;;;;;16.30;80.50;;;;;;5051628;28;20289;-76
2023/09/18 00:49:14;;;;;;;;;;;16.30;80.50;;;;;;5051384;28;20298;-73
2023/09/18 00:51:40;;;;;;;;;;;16.20;80.50;;;;;;5033795;28;19927;-74
2023/09/18 00:54:06;;;;;;;;;;;16.20;80.50;;;;;;5033472;28;19913;-74
2023/09/18 00:56:32;;;;;;;;;;;16.20;80.60;;;;;;5051507;28;19912;-75
2023/09/18 00:58:58;;;;;;;;;;;16.20;80.60;;;;;;5051449;28;19909;-74
2023/09/18 01:01:24;;;;;;;;;;;16.20;80.60;;;;;;5033213;28;19927;-74
2023/09/18 01:03:51;;;;;;;;;;;16.20;80.60;;;;;;5051319;28;20007;-75
2023/09/18 01:06:18;;;;;;;;;;;16.20;80.60;;;;;;5051178;28;19971;-76
2023/09/18 01:08:44;;;;;;;;;;;16.20;80.60;;;;;;5033469;28;19946;-75
2023/09/18 01:11:14;;;;;;;;;;;16.30;80.60;;;;;;5016706;28;19916;-76
2023/09/18 01:13:50;;;;;;;;;;;16.30;80.60;;;;;;5033135;28;20352;-75
2023/09/18 01:16:24;;;;;;;;;;;16.30;80.60;;;;;;5051019;28;19909;-74
2023/09/18 01:18:50;;;;;;;;;;;16.30;80.60;;;;;;5033022;28;19960;-74
2023/09/18 01:21:16;;;;;;;;;;;16.20;80.50;;;;;;5032628;28;19956;-75
2023/09/18 01:23:42;;;;;;;;;;;16.20;80.50;;;;;;5050876;28;19920;-75
2023/09/18 01:26:08;;;;;;;;;;;16.20;80.60;;;;;;5050882;28;19913;-74
2023/09/18 01:28:33;;;;;;;;;;;16.20;80.50;;;;;;5016410;28;19958;-74
2023/09/18 01:30:59;;;;;;;;;;;16.20;80.60;;;;;;5032810;28;19913;-74
2023/09/18 01:33:25;;;;;;;;;;;16.20;80.60;;;;;;5032792;28;20308;-74
2023/09/18 01:35:51;;;;;;;;;;;16.20;80.60;;;;;;5032787;28;19916;-75
2023/09/18 01:38:17;;;;;;;;;;;16.20;80.60;;;;;;5050772;28;19931;-75
2023/09/18 01:40:43;;;;;;;;;;;16.20;80.60;;;;;;5032736;28;20364;-75
2023/09/18 01:43:09;;;;;;;;;;;16.20;80.60;;;;;;5032422;28;19924;-75
2023/09/18 01:45:35;;;;;;;;;;;16.20;80.60;;;;;;5016211;28;19913;-75
2023/09/18 01:48:00;;;;;;;;;;;16.20;80.60;;;;;;5015974;28;20293;-75
2023/09/18 01:50:26;;;;;;;;;;;16.20;80.60;;;;;;5031614;28;19916;-75
2023/09/18 01:52:51;;;;;;;;;;;16.20;80.70;;;;;;5032505;28;20291;-75
2023/09/18 01:55:17;;;;;;;;;;;16.20;80.70;;;;;;5050327;28;19966;-74
2023/09/18 01:57:43;;;;;;;;;;;16.20;80.70;;;;;;5032493;28;19913;-75
2023/09/18 02:00:09;;;;;;;;;;;16.20;80.70;;;;;;5032275;28;20025;-75
2023/09/18 02:02:35;;;;;;;;;;;16.20;80.70;;;;;;5032449;28;19923;-75
2023/09/18 02:05:01;;;;;;;;;;;16.20;80.70;;;;;;5050060;28;19921;-75
2023/09/18 02:07:27;;;;;;;;;;;16.20;80.70;;;;;;5050134;28;20267;-75
2023/09/18 02:09:53;;;;;;;;;;;16.20;80.70;;;;;;5032253;28;19917;-75
2023/09/18 02:12:18;;;;;;;;;;;16.20;80.70;;;;;;5015628;28;20379;-74
2023/09/18 02:14:44;;;;;;;;;;;16.20;80.70;;;;;;5050054;28;20474;-75
2023/09/18 02:17:10;;;;;;;;;;;16.20;80.70;;;;;;5015412;28;20288;-74
2023/09/18 02:19:36;;;;;;;;;;;16.20;80.70;;;;;;5032100;28;19967;-75
2023/09/18 02:22:02;;;;;;;;;;;16.20;80.80;;;;;;5049592;28;20393;-75
2023/09/18 02:24:28;;;;;;;;;;;16.20;80.70;;;;;;5032064;28;19944;-75
2023/09/18 02:26:53;;;;;;;;;;;16.20;80.80;;;;;;5031940;28;20369;-75
2023/09/18 02:29:19;;;;;;;;;;;16.20;80.70;;;;;;5049641;28;19913;-75
2023/09/18 02:31:44;;;;;;;;;;;16.20;80.70;;;;;;5049675;28;19913;-75
2023/09/18 02:34:10;;;;;;;;;;;16.20;80.80;;;;;;5031649;28;20360;-75
2023/09/18 02:36:36;;;;;;;;;;;16.20;80.70;;;;;;5049590;28;19915;-75
2023/09/18 02:39:02;;;;;;;;;;;16.20;80.70;;;;;;5049519;28;20027;-74
2023/09/18 02:41:28;;;;;;;;;;;16.20;80.70;;;;;;5031480;28;20070;-74
2023/09/18 02:43:53;;;;;;;;;;;16.20;80.90;;;;;;5049495;28;20480;-74
2023/09/18 02:46:19;;;;;;;;;;;16.10;80.80;;;;;;5031435;28;20258;-74
2023/09/18 02:48:44;;;;;;;;;;;16.20;80.80;;;;;;5049555;28;20007;-74
2023/09/18 02:51:10;;;;;;;;;;;16.20;80.80;;;;;;5049396;28;19923;-74
2023/09/18 02:53:35;;;;;;;;;;;16.20;80.80;;;;;;5049114;28;19948;-74
2023/09/18 02:56:01;;;;;;;;;;;16.20;80.80;;;;;;5049101;28;19908;-74
2023/09/18 02:58:29;;;;;;;;;;;16.20;80.80;;;;;;5031078;28;19908;-74
2023/09/18 03:00:55;;;;;;;;;;;16.20;80.80;;;;;;5031459;28;19919;-74
2023/09/18 03:03:21;;;;;;;;;;;16.20;80.80;;;;;;5048923;28;19935;-74
2023/09/18 03:05:46;;;;;;;;;;;16.20;80.80;;;;;;5049026;28;19999;-74
2023/09/18 03:08:12;;;;;;;;;;;16.20;80.80;;;;;;5031196;28;19919;-75
2023/09/18 03:10:42;;;;;;;;;;;16.20;80.80;;;;;;5030890;28;19917;-74
2023/09/18 03:13:08;;;;;;;;;;;16.20;80.80;;;;;;5048793;28;19962;-74
2023/09/18 03:15:33;;;;;;;;;;;16.20;80.80;;;;;;5048694;28;20347;-74
2023/09/18 03:18:00;;;;;;;;;;;16.20;80.80;;;;;;5048839;28;19913;-74
2023/09/18 03:20:27;;;;;;;;;;;16.20;80.80;;;;;;5030890;28;19913;-75
2023/09/18 03:22:54;;;;;;;;;;;16.20;80.70;;;;;;5048608;28;19916;-75
2023/09/18 03:25:19;;;;;;;;;;;16.20;80.70;;;;;;5030726;28;19908;-74
2023/09/18 03:27:45;;;;;;;;;;;16.20;80.70;;;;;;5030554;28;20007;-75
2023/09/18 03:30:15;;;;;;;;;;;16.10;80.70;;;;;;5030321;28;20020;-74
2023/09/18 03:32:42;;;;;;;;;;;16.10;80.70;;;;;;5048511;28;19955;-74
2023/09/18 03:35:09;;;;;;;;;;;16.10;80.70;;;;;;5048418;28;19913;-75
2023/09/18 03:37:35;;;;;;;;;;;16.00;80.70;;;;;;5030561;28;19908;-74
2023/09/18 03:40:02;;;;;;;;;;;16.00;80.70;;;;;;5030441;28;19924;-74
2023/09/18 03:42:27;;;;;;;;;;;15.90;80.70;;;;;;5048275;28;19913;-74
2023/09/18 03:44:53;;;;;;;;;;;15.80;80.70;;;;;;5014099;28;19920;-75
2023/09/18 03:47:18;;;;;;;;;;;15.80;80.70;;;;;;5048583;28;19913;-74
2023/09/18 03:49:44;;;;;;;;;;;15.80;80.70;;;;;;5048417;28;20154;-74
2023/09/18 03:52:09;;;;;;;;;;;15.80;80.80;;;;;;5030345;28;19946;-75
2023/09/18 03:54:35;;;;;;;;;;;15.80;80.80;;;;;;5030470;28;20372;-75
2023/09/18 03:57:00;;;;;;;;;;;15.70;80.80;;;;;;5030171;28;19921;-75
2023/09/18 03:59:26;;;;;;;;;;;15.70;80.80;;;;;;5029930;28;19909;-75
2023/09/18 04:01:52;;;;;;;;;;;15.70;80.80;;;;;;5029799;28;19917;-75
2023/09/18 04:04:17;;;;;;;;;;;15.70;80.80;;;;;;5048014;28;19935;-74
2023/09/18 04:06:43;;;;;;;;;;;15.70;80.70;;;;;;5029943;28;19908;-74
2023/09/18 04:09:09;;;;;;;;;;;15.60;80.70;;;;;;5047922;28;19967;-74
2023/09/18 04:11:35;;;;;;;;;;;15.60;80.70;;;;;;5030366;28;20281;-74
2023/09/18 04:14:01;;;;;;;;;;;15.50;80.50;;;;;;5029345;28;19913;-74
2023/09/18 04:16:30;;;;;;;;;;;15.40;80.50;;;;;;5047801;28;19917;-75
2023/09/18 04:18:56;;;;;;;;;;;15.20;80.50;;;;;;5047940;28;19916;-75
2023/09/18 04:21:23;;;;;;;;;;;15.10;80.60;;;;;;5029597;28;20372;-74
2023/09/18 04:23:55;;;;;;;;;;;15.00;80.70;;;;;;5029888;28;19917;-74
2023/09/18 04:26:21;;;;;;;;;;;14.90;80.80;;;;;;5047676;28;19913;-75
2023/09/18 04:28:47;;;;;;;;;;;14.90;80.90;;;;;;5047837;28;19984;-74
2023/09/18 04:31:13;;;;;;;;;;;14.90;80.90;;;;;;5047976;28;19909;-75
2023/09/18 04:33:38;;;;;;;;;;;14.90;80.90;;;;;;5029758;28;19913;-75
2023/09/18 04:36:04;;;;;;;;;;;14.90;80.80;;;;;;5013425;28;20347;-75
2023/09/18 04:38:29;;;;;;;;;;;14.90;80.70;;;;;;5013207;28;19921;-75
2023/09/18 04:40:59;;;;;;;;;;;14.80;80.60;;;;;;5013296;28;19920;-75
2023/09/18 04:43:24;;;;;;;;;;;14.80;80.60;;;;;;5029585;28;19964;-74
2023/09/18 04:45:50;;;;;;;;;;;14.70;80.50;;;;;;5047796;28;19959;-75
2023/09/18 04:48:16;;;;;;;;;;;14.60;80.60;;;;;;5047541;28;20280;-74
2023/09/18 04:50:42;;;;;;;;;;;14.50;80.60;;;;;;5047487;28;19966;-74
2023/09/18 04:53:08;;;;;;;;;;;14.50;80.70;;;;;;5013575;28;20308;-74
2023/09/18 04:55:34;;;;;;;;;;;14.40;80.70;;;;;;5029738;28;19996;-75
2023/09/18 04:58:00;;;;;;;;;;;14.40;80.70;;;;;;5047361;28;20003;-75
2023/09/18 05:00:26;;;;;;;;;;;14.30;80.60;;;;;;5047360;28;19975;-75
2023/09/18 05:02:52;;;;;;;;;;;14.30;80.70;;;;;;5029766;28;19916;-75
2023/09/18 05:05:18;;;;;;;;;;;14.30;80.70;;;;;;5029763;28;20292;-75
2023/09/18 05:07:44;;;;;;;;;;;14.30;80.70;;;;;;5029484;28;19920;-74
2023/09/18 05:10:09;;;;;;;;;;;14.30;80.80;;;;;;5013270;28;19913;-74
2023/09/18 05:12:35;;;;;;;;;;;14.30;80.70;;;;;;5029579;28;19919;-75
2023/09/18 05:15:01;;;;;;;;;;;14.30;80.70;;;;;;5029472;28;20280;-75
2023/09/18 05:17:41;;;;;;;;;;;14.30;80.60;;;;;;5047096;28;19909;-75
2023/09/18 05:20:07;;;;;;;;;;;14.30;80.70;;;;;;5047671;28;20011;-74
2023/09/18 05:22:33;;;;;;;;;;;14.30;80.70;;;;;;5047084;28;20024;-75
2023/09/18 05:24:58;;;;;;;;;;;14.30;80.70;;;;;;5029633;28;20341;-74
2023/09/18 05:27:25;;;;;;;;;;;14.30;80.70;;;;;;5032070;28;19924;-75
2023/09/18 05:29:50;;;;;;;;;;;14.40;80.70;;;;;;5016163;28;19921;-75
2023/09/18 05:32:16;;;;;;;;;;;14.40;80.60;;;;;;5050816;28;19912;-75
2023/09/18 05:34:41;;;;;;;;;;;14.40;80.50;;;;;;5032829;28;20011;-76
2023/09/18 05:37:07;;;;;;;;;;;14.40;80.60;;;;;;5016067;28;19920;-74
2023/09/18 05:39:32;;;;;;;;;;;14.40;80.60;;;;;;5050503;28;19909;-75
2023/09/18 05:41:58;;;;;;;;;;;14.40;80.60;;;;;;5050565;28;19940;-75
2023/09/18 05:44:25;;;;;;;;;;;14.40;80.60;;;;;;5016193;28;20368;-75
2023/09/18 05:46:50;;;;;;;;;;;14.40;80.60;;;;;;5050249;28;20304;-75
2023/09/18 05:49:16;;;;;;;;;;;14.40;80.50;;;;;;5050469;28;20014;-75
2023/09/18 05:51:41;;;;;;;;;;;14.40;80.50;;;;;;5032705;28;19935;-75
2023/09/18 05:54:07;;;;;;;;;;;14.30;80.40;;;;;;5032455;28;20272;-75
2023/09/18 05:56:33;;;;;;;;;;;14.30;80.40;;;;;;5032446;28;19970;-75
2023/09/18 05:58:59;;;;;;;;;;;14.30;80.40;;;;;;5032130;28;19916;-74
2023/09/18 06:01:25;;;;;;;;;;;14.30;80.50;;;;;;5049995;28;19913;-75
2023/09/18 06:03:50;;;;;;;;;;;14.20;80.40;;;;;;5032003;28;19912;-75
2023/09/18 06:06:16;;;;;;;;;;;14.20;80.40;;;;;;5049901;28;19917;-75
2023/09/18 06:08:41;;;;;;;;;;;14.20;80.50;;;;;;5049730;28;20004;-75
2023/09/18 06:11:07;;;;;;;;;;;14.20;80.50;;;;;;5032070;28;19952;-75
2023/09/18 06:13:34;;;;;;;;;;;14.20;80.40;;;;;;5032035;28;19913;-75
2023/09/18 06:16:05;;;;;;;;;;;14.20;80.40;;;;;;5031613;28;20339;-73
2023/09/18 06:18:31;;;;;;;;;;;14.10;80.40;;;;;;5049932;28;20007;-75
2023/09/18 06:20:56;;;;;;;;;;;14.10;80.30;;;;;;5031555;28;20019;-75
2023/09/18 06:23:22;;;;;;;;;;;14.00;80.30;;;;;;5049623;28;20035;-74
2023/09/18 06:25:55;;;;;;;;;;;14.00;80.30;;;;;;5031719;28;20433;-75
2023/09/18 06:28:20;;;;;;;;;;;13.90;80.30;;;;;;5032710;28;20324;-74
2023/09/18 06:30:46;;;;;;;;;;;13.90;80.40;;;;;;5031663;28;20003;-75
2023/09/18 06:33:12;;;;;;;;;;;13.90;80.40;;;;;;5031410;28;19987;-74
2023/09/18 06:35:38;;;;;;;;;;;13.90;80.40;;;;;;5031288;28;20000;-75
2023/09/18 06:38:05;;;;;;;;;;;13.90;80.40;;;;;;5014645;28;19988;-74
2023/09/18 06:40:30;;;;;;;;;;;14.00;80.40;;;;;;5030586;28;20328;-75
2023/09/18 06:43:00;;;;;;;;;;;14.00;80.50;;;;;;5030812;28;19917;-75
2023/09/18 06:45:25;;;;;;;;;;;14.00;80.50;;;;;;5030972;28;19913;-74
2023/09/18 06:47:53;;;;;;;;;;;14.10;80.50;;;;;;5048828;28;19920;-74
2023/09/18 06:50:18;;;;;;;;;;;14.10;80.40;;;;;;5030683;28;19913;-74
2023/09/18 06:52:44;;;;;;;;;;;14.10;80.40;;;;;;5030899;28;19928;-78
2023/09/18 06:55:10;;;;;;;;;;;14.10;80.30;;;;;;5014085;28;19916;-74
2023/09/18 06:57:35;;;;;;;;;;;14.10;80.40;;;;;;5014036;28;19974;-74
2023/09/18 07:00:01;;;;;;;;;;;14.20;80.40;;;;;;5030570;28;20013;-73
2023/09/18 07:02:27;;;;;;;;;;;14.20;80.40;;;;;;5030129;28;19913;-75
2023/09/18 07:04:52;;;;;;;;;;;14.20;80.40;;;;;;5030383;28;19920;-75
2023/09/18 07:07:24;;;;;;;;;;;14.30;80.40;;;;;;5030231;28;19908;-74
2023/09/18 07:09:50;;;;;;;;;;;14.30;80.40;;;;;;5048239;28;19912;-74
2023/09/18 07:12:18;;;;;;;;;;;14.30;80.40;;;;;;5048103;28;19939;-75
2023/09/18 07:14:44;;;;;;;;;;;14.30;80.40;;;;;;5047377;28;19915;-73
2023/09/18 07:17:09;;;;;;;;;;;14.30;80.40;;;;;;5029582;28;19939;-75
2023/09/18 07:19:35;;;;;;;;;;;14.40;80.50;;;;;;5030520;28;20000;-73
2023/09/18 07:22:01;;;;;;;;;;;14.40;80.50;;;;;;5030000;28;20413;-75
2023/09/18 07:24:26;;;;;;;;;;;14.50;80.50;;;;;;5030003;28;20368;-74
2023/09/18 07:26:54;;;;;;;;;;;14.60;80.40;;;;;;5029671;28;20459;-74
2023/09/18 07:29:20;;;;;;;;;;;14.60;80.30;;;;;;5048049;28;20372;-74
2023/09/18 07:31:46;;;;;;;;;;;14.60;80.30;;;;;;5048390;28;19908;-74
2023/09/18 07:34:13;;;;;;;;;;;14.60;80.30;;;;;;5030118;28;19948;-74
2023/09/18 07:36:39;;;;;;;;;;;14.60;80.20;;;;;;5048014;28;20320;-74
2023/09/18 07:39:05;;;;;;;;;;;14.60;80.20;;;;;;5029890;28;19917;-74
2023/09/18 07:41:31;;;;;;;;;;;14.50;80.20;;;;;;5048151;28;19959;-76
2023/09/18 07:43:58;;;;;;;;;;;14.70;81.30;;;;;;5030138;28;19909;-74
2023/09/18 07:46:24;;;;;;;;;;;14.90;80.60;;;;;;5047623;28;19920;-74
2023/09/18 07:48:50;;;;;;;;;;;15.10;80.50;;;;;;5046284;28;19916;-73
2023/09/18 07:51:18;;;;;;;;;;;15.20;80.30;;;;;;5028294;28;19913;-75
2023/09/18 07:53:44;;;;;;;;;;;15.30;80.20;;;;;;5013172;28;19913;-76
2023/09/18 07:56:10;;;;;;;;;;;15.40;80.40;;;;;;5029143;28;20327;-75
2023/09/18 07:58:38;;;;;;;;;;;15.50;80.50;;;;;;5047163;28;19931;-75
2023/09/18 08:01:06;;;;;;;;;;;15.50;80.40;;;;;;5047023;28;19959;-75
2023/09/18 08:03:34;;;;;;;;;;;15.60;80.90;;;;;;5047267;28;19936;-75
2023/09/18 08:06:00;;;;;;;;;;;15.60;80.30;;;;;;5029208;28;20334;-75
2023/09/18 08:08:26;;;;;;;;;;;15.70;80.40;;;;;;5047646;28;19920;-74
2023/09/18 08:10:52;;;;;;;;;;;15.70;80.60;;;;;;5047725;28;19988;-74
2023/09/18 08:13:18;;;;;;;;;;;15.90;80.80;;;;;;5029417;28;20415;-74
2023/09/18 08:15:43;;;;;;;;;;;16.10;81.00;;;;;;5029754;28;19972;-75
2023/09/18 08:18:10;;;;;;;;;;;16.40;81.10;;;;;;5047089;28;19917;-75
2023/09/18 08:20:37;;;;;;;;;;;17.10;82.20;;;;;;5046806;28;19957;-75
2023/09/18 08:23:05;;;;;;;;;;;18.10;82.70;;;;;;5029076;28;20286;-75
2023/09/18 08:25:31;;;;;;;;;;;19.30;82.60;;;;;;5048262;28;19936;-75
2023/09/18 08:27:56;;;;;;;;;;;20.50;82.30;;;;;;5068308;28;19931;-75
2023/09/18 08:30:22;;;;;;;;;;;21.50;81.50;;;;;;5068749;28;20356;-75
2023/09/18 08:32:48;;;;;;;;;;;21.90;80.60;;;;;;5050831;28;19912;-75
2023/09/18 08:35:13;;;;;;;;;;;22.50;80.70;;;;;;5050492;28;19921;-75
2023/09/18 08:37:42;;;;;;;;;;;23.10;80.60;;;;;;5068057;28;19918;-75
2023/09/18 08:40:13;;;;;;;;;;;23.60;80.40;;;;;;5049398;28;19992;-75
2023/09/18 08:42:40;;;;;;;;;;;24.10;80.50;;;;;;5049698;28;19942;-74
2023/09/18 08:45:09;;;;;;;;;;;24.60;80.60;;;;;;5050549;28;19912;-75
2023/09/18 08:47:35;;;;;;;;;;;25.00;80.00;;;;;;5068356;28;19946;-75
2023/09/18 08:50:01;;;;;;;;;;;25.20;80.00;;;;;;5068059;28;19916;-74
2023/09/18 08:52:27;;;;;;;;;;;25.50;80.20;;;;;;5049913;28;19981;-75
2023/09/18 08:54:53;;;;;;;;;;;25.80;80.50;;;;;;5049948;28;20011;-75
2023/09/18 08:57:19;;;;;;;;;;;26.20;80.80;;;;;;5067718;28;19908;-75
2023/09/18 08:59:46;;;;;;;;;;;26.50;80.90;;;;;;5068200;28;20074;-73
2023/09/18 09:02:12;;;;;;;;;;;27.00;81.20;;;;;;5070872;28;19920;-76
2023/09/18 09:04:38;;;;;;;;;;;27.40;81.20;;;;;;5062554;28;20361;-75
2023/09/18 09:07:04;;;;;;;;;;;27.80;81.20;;;;;;5062765;28;19912;-75
2023/09/18 09:09:30;;;;;;;;;;;28.10;81.20;;;;;;5042276;28;19936;-75
2023/09/18 09:11:56;;;;;;;;;;;28.40;80.90;;;;;;5061907;28;20004;-75
2023/09/18 09:14:27;;;;;;;;;;;28.40;80.50;;;;;;5071630;28;20359;-75
2023/09/18 09:16:53;;;;;;;;;;;28.40;80.70;;;;;;5071116;28;20269;-75
2023/09/18 09:19:27;;;;;;;;;;;28.40;80.40;;;;;;5061286;28;19908;-74
2023/09/18 09:21:53;;;;;;;;;;;28.20;80.60;;;;;;5057931;28;19928;-74
2023/09/18 09:24:35;;;;;;;;;;;28.30;81.10;;;;;;5042077;28;20258;-74
2023/09/18 09:27:03;;;;;;;;;;;28.40;81.20;;;;;;5030219;28;19940;-74
2023/09/18 09:29:29;;;;;;;;;;;28.60;81.40;;;;;;5026918;28;19982;-74
2023/09/18 09:31:56;;;;;;;;;;;28.70;81.10;;;;;;5070200;28;19917;-74
2023/09/18 09:34:26;;;;;;;;;;;28.70;81.00;;;;;;5060516;28;20319;-74
2023/09/18 09:36:55;;;;;;;;;;;28.80;81.30;;;;;;5047497;28;20026;-75
2023/09/18 09:39:25;;;;;;;;;;;29.00;81.60;;;;;;5040939;28;19971;-75
2023/09/18 09:41:51;;;;;;;;;;;29.10;81.50;;;;;;5041319;28;20042;-76
2023/09/18 09:44:18;;;;;;;;;;;29.00;81.30;;;;;;5044259;28;20015;-75
2023/09/18 09:46:48;;;;;;;;;;;29.20;82.10;;;;;;5062609;28;20296;-74
2023/09/18 09:49:15;;;;;;;;;;;29.60;82.20;;;;;;5052306;28;19925;-75
2023/09/18 09:51:41;;;;;;;;;;;29.60;81.30;;;;;;5059578;28;19920;-74
2023/09/18 09:54:07;;;;;;;;;;;29.00;80.60;;;;;;5041476;28;19916;-74
2023/09/18 09:56:48;;;;;;;;;;;28.30;80.00;;;;;;5026978;28;19984;-74
2023/09/18 09:59:14;;;;;;;;;;;27.40;80.40;;;;;;5058072;28;20323;-78
2023/09/18 10:01:44;;;;;;;;;;;27.50;82.00;;;;;;5032717;28;20417;-77
2023/09/18 10:04:12;;;;;;;;;;;27.50;81.70;;;;;;5033943;28;19917;-74
2023/09/18 10:06:41;;;;;;;;;;;27.50;81.50;;;;;;5049773;28;19909;-73
2023/09/18 10:09:07;;;;;;;;;;;27.30;81.20;;;;;;5048419;28;19970;-73
2023/09/18 10:11:40;;;;;;;;;;;26.60;80.40;;;;;;5049829;28;20368;-74
2023/09/18 10:14:16;;;;;;;;;;;25.80;80.60;;;;;;5051648;28;19951;-76
2023/09/18 10:16:45;;;;;;;;;;;25.20;81.00;;;;;;5051330;28;19916;-77
2023/09/18 10:19:39;;;;;;;;;;;24.40;80.40;;;;;;5050751;28;19913;-75
2023/09/18 10:22:20;;;;;;;;;;;23.70;80.40;;;;;;5028221;28;19921;-74
2023/09/18 10:24:47;;;;;;;;;;;22.90;80.70;;;;;;5050744;28;19955;-75
2023/09/18 10:27:13;;;;;;;;;;;22.30;80.60;;;;;;5049519;28;20391;-78
2023/09/18 10:29:40;;;;;;;;;;;21.70;80.80;;;;;;5033236;28;19917;-73
2023/09/18 10:32:09;;;;;;;;;;;21.30;81.70;;;;;;5050246;28;20011;-73
2023/09/18 10:34:36;;;;;;;;;;;21.90;84.30;;;;;;5050040;28;19909;-73
2023/09/18 10:37:06;;;;;;;;;;;23.10;84.40;;;;;;5032026;28;20343;-73
2023/09/18 10:39:34;;;;;;;;;;;24.30;84.10;;;;;;5048479;28;19955;-73
2023/09/18 10:42:01;;;;;;;;;;;25.50;83.40;;;;;;5049362;28;19947;-74
2023/09/18 10:44:28;;;;;;;;;;;26.30;82.70;;;;;;5049959;28;19909;-77
2023/09/18 10:46:55;;;;;;;;;;;26.40;81.10;;;;;;5049920;28;20309;-76
2023/09/18 10:49:21;;;;;;;;;;;26.40;81.20;;;;;;5049298;28;19951;-76
2023/09/18 10:51:47;;;;;;;;;;;25.90;79.90;;;;;;5041563;28;20310;-77
2023/09/18 10:54:19;;;;;;;;;;;25.50;81.00;;;;;;5059207;28;20249;-77
2023/09/18 10:56:45;;;;;;;;;;;26.00;82.50;;;;;;5058055;28;20354;-77
2023/09/18 10:59:11;;;;;;;;;;;26.70;82.30;;;;;;5065433;28;19976;-77
2023/09/18 11:01:36;;;;;;;;;;;27.30;82.10;;;;;;5024175;28;19975;-80
2023/09/18 11:04:10;;;;;;;;;;;27.70;81.70;;;;;;5061715;28;19918;-82
2023/09/18 11:06:54;;;;;;;;;;;28.00;81.40;;;;;;5067565;28;20012;-79
2023/09/18 11:09:39;;;;;;;;;;;27.80;81.00;;;;;;5034076;28;19909;-70
2023/09/18 11:12:05;;;;;;;;;;;27.50;81.10;;;;;;5051306;28;19912;-71
2023/09/18 11:14:44;;;;;;;;;;;27.30;81.50;;;;;;5042585;28;19913;-71
2023/09/18 11:17:28;;;;;;;;;;;27.70;81.90;;;;;;5036189;28;19916;-68
2023/09/18 11:20:09;;;;;;;;;;;27.70;82.00;;;;;;5048525;28;19994;-73
2023/09/18 11:22:36;;;;;;;;;;;28.00;81.80;;;;;;5048540;28;20317;-72
2023/09/18 11:25:22;;;;;;;;;;;27.80;80.70;;;;;;5048672;28;19913;-73
2023/09/18 11:27:55;;;;;;;;;;;27.20;79.90;;;;;;5034717;28;19969;-71
2023/09/18 11:30:21;;;;;;;;;;;26.20;79.30;;;;;;5048070;28;19962;-74
2023/09/18 11:32:47;;;;;;;;;;;25.40;79.50;;;;;;5030207;28;20314;-73
2023/09/18 11:35:16;;;;;;;;;;;25.30;81.50;;;;;;5048506;28;19981;-70
2023/09/18 11:37:42;;;;;;;;;;;25.80;82.20;;;;;;5047933;28;20349;-72
2023/09/18 11:40:27;;;;;;;;;;;26.40;82.70;;;;;;5047773;28;19919;-72
2023/09/18 11:43:11;;;;;;;;;;;27.00;82.20;;;;;;5047427;28;19912;-71
2023/09/18 11:45:38;;;;;;;;;;;27.30;81.70;;;;;;5047200;28;19912;-66
2023/09/18 11:48:05;;;;;;;;;;;27.70;81.90;;;;;;5047673;28;19936;-72
2023/09/18 11:50:31;;;;;;;;;;;27.60;81.00;;;;;;5047861;28;19909;-71
2023/09/18 11:52:58;;;;;;;;;;;27.20;80.70;;;;;;5029838;28;20436;-72
2023/09/18 11:55:24;;;;;;;;;;;26.80;80.50;;;;;;5036776;28;19913;-75
2023/09/18 11:57:49;;;;;;;;;;;26.20;80.20;;;;;;5012212;28;19921;-72
2023/09/18 12:00:22;;;;;;;;;;;25.50;79.80;;;;;;5029453;28;19999;-73
2023/09/18 12:02:48;;;;;;;;;;;24.80;79.90;;;;;;5030306;28;19916;-72
2023/09/18 12:05:15;;;;;;;;;;;24.20;80.60;;;;;;5047819;28;19966;-72
2023/09/18 12:07:45;;;;;;;;;;;23.80;80.90;;;;;;5047932;28;19913;-73
2023/09/18 12:10:16;;;;;;;;;;;23.50;80.70;;;;;;5048142;28;20011;-72
2023/09/18 12:12:43;;;;;;;;;;;23.20;80.50;;;;;;5048163;28;20321;-73
2023/09/18 12:15:12;;;;;;;;;;;22.70;80.10;;;;;;5038084;28;19963;-75
2023/09/18 12:17:37;;;;;;;;;;;22.20;80.30;;;;;;5037281;28;19912;-75
2023/09/18 12:20:05;;;;;;;;;;;22.00;80.40;;;;;;5039462;28;20520;-75
2023/09/18 12:22:33;;;;;;;;;;;21.60;80.10;;;;;;5061638;28;20034;-75
2023/09/18 12:25:12;;;;;;;;;;;21.40;80.30;;;;;;5035668;28;19976;-74
2023/09/18 12:27:37;;;;;;;;;;;21.10;80.40;;;;;;5045702;28;19917;-74
2023/09/18 12:30:04;;;;;;;;;;;20.90;80.20;;;;;;5067485;28;20292;-73
2023/09/18 12:32:32;;;;;;;;;;;20.50;79.50;;;;;;5067743;28;20281;-72
2023/09/18 12:34:58;;;;;;;;;;;20.20;79.60;;;;;;5069036;28;20268;-75
2023/09/18 12:37:23;;;;;;;;;;;19.90;79.60;;;;;;5072163;28;19909;-73
2023/09/18 12:39:51;;;;;;;;;;;19.70;79.90;;;;;;5071405;28;19920;-68
2023/09/18 12:42:20;;;;;;;;;;;19.70;80.80;;;;;;5054397;28;20032;-74
2023/09/18 12:44:49;;;;;;;;;;;20.00;81.40;;;;;;5075105;28;19917;-76
2023/09/18 12:47:15;;;;;;;;;;;20.40;81.20;;;;;;5072471;28;19908;-73
2023/09/18 12:49:40;;;;;;;;;;;20.60;80.60;;;;;;5054001;28;20455;-76
2023/09/18 12:52:06;;;;;;;;;;;20.80;80.60;;;;;;5071639;28;19924;-74
2023/09/18 12:54:40;;;;;;;;;;;21.10;81.40;;;;;;5071196;28;20318;-75
2023/09/18 12:57:07;;;;;;;;;;;21.60;81.00;;;;;;5070511;28;19920;-75
2023/09/18 12:59:33;;;;;;;;;;;21.60;80.20;;;;;;5070146;28;19924;-74
2023/09/18 13:01:59;;;;;;;;;;;22.00;81.40;;;;;;5070221;28;19912;-75
2023/09/18 13:04:25;;;;;;;;;;;22.60;81.60;;;;;;5070535;28;19916;-76
2023/09/18 13:07:07;;;;;;;;;;;22.90;81.60;;;;;;5052999;28;19912;-73
2023/09/18 13:09:32;;;;;;;;;;;23.20;80.80;;;;;;5071296;28;19938;-73
2023/09/18 13:11:58;;;;;;;;;;;23.20;80.60;;;;;;5036911;28;19919;-72
2023/09/18 13:14:24;;;;;;;;;;;23.20;81.00;;;;;;5071188;28;20259;-76
2023/09/18 13:16:50;;;;;;;;;;;23.10;80.50;;;;;;5071350;28;20337;-74
2023/09/18 13:19:17;;;;;;;;;;;23.20;81.00;;;;;;5070970;28;19993;-76
2023/09/18 13:21:49;;;;;;;;;;;23.20;80.80;;;;;;5070773;28;19925;-75
2023/09/18 13:24:24;;;;;;;;;;;23.20;81.10;;;;;;5071262;28;19908;-73
2023/09/18 13:26:50;;;;;;;;;;;23.20;81.20;;;;;;5071314;28;19913;-73
2023/09/18 13:29:15;;;;;;;;;;;23.10;81.00;;;;;;5070894;28;19920;-73
2023/09/18 13:31:41;;;;;;;;;;;22.90;80.40;;;;;;5052563;28;20478;-73
2023/09/18 13:34:06;;;;;;;;;;;22.70;80.70;;;;;;5053076;28;19912;-75
2023/09/18 13:36:33;;;;;;;;;;;22.50;80.30;;;;;;5070627;28;20003;-73
2023/09/18 13:38:58;;;;;;;;;;;22.30;80.80;;;;;;5070698;28;19913;-73
2023/09/18 13:41:24;;;;;;;;;;;22.30;80.60;;;;;;5070230;28;19913;-74
2023/09/18 13:43:54;;;;;;;;;;;22.00;79.90;;;;;;5062566;28;19924;-74
2023/09/18 13:46:20;;;;;;;;;;;21.70;79.80;;;;;;5042310;28;19923;-73
2023/09/18 13:48:47;;;;;;;;;;;21.40;79.60;;;;;;5059946;28;19913;-73
2023/09/18 13:51:13;;;;;;;;;;;21.30;79.90;;;;;;5061983;28;20019;-74
2023/09/18 13:53:40;;;;;;;;;;;21.10;79.80;;;;;;5058245;28;20015;-74
2023/09/18 13:56:06;;;;;;;;;;;20.90;79.90;;;;;;5059392;28;19908;-74
2023/09/18 13:58:33;;;;;;;;;;;20.80;79.90;;;;;;5059227;28;19995;-74
2023/09/18 14:00:59;;;;;;;;;;;20.60;79.70;;;;;;5042368;28;19957;-74
2023/09/18 14:03:24;;;;;;;;;;;20.30;79.30;;;;;;5041961;28;19975;-74
2023/09/18 14:05:50;;;;;;;;;;;20.00;79.40;;;;;;5065544;28;19954;-74
2023/09/18 14:08:17;;;;;;;;;;;19.80;79.40;;;;;;5036126;28;19967;-74
2023/09/18 14:10:43;;;;;;;;;;;19.50;79.60;;;;;;5052792;28;19917;-72
2023/09/18 14:13:09;;;;;;;;;;;19.40;79.80;;;;;;5041344;28;19996;-74
2023/09/18 14:15:35;;;;;;;;;;;19.30;79.90;;;;;;5061695;28;20356;-77